Time;durP1;ratioP1;P1;durP2;ratioP2;P2;SDS_P1;SDS_P2;PMS_P1;PMS_P2;Temp;Humidity;BMP_temperature;BMP_pressure;BME280_temperature;BME280_humidity;BME280_pressure;Samples;Min_cycle;Max_cycle;Signal;HPM_P1;HPM_P2
2023/05/23 00:01:06;;;;;;;29.80;16.13;;;13.70;99.90;;;;;;5078116;28;20037;-56
2023/05/23 00:03:33;;;;;;;29.52;16.08;;;13.20;99.90;;;;;;5076902;28;20056;-57
2023/05/23 00:05:59;;;;;;;31.67;16.48;;;13.30;99.90;;;;;;5079114;28;20045;-56
2023/05/23 00:08:25;;;;;;;29.13;16.40;;;13.70;99.90;;;;;;5077253;28;20074;-57
2023/05/23 00:10:51;;;;;;;30.15;16.48;;;13.00;99.90;;;;;;5078297;28;20041;-56
2023/05/23 00:13:17;;;;;;;24.73;15.77;;;13.70;99.90;;;;;;5078008;28;20104;-56
2023/05/23 00:15:43;;;;;;;28.00;15.63;;;13.10;99.90;;;;;;5076947;28;20047;-57
2023/05/23 00:18:10;;;;;;;24.23;16.33;;;13.70;99.90;;;;;;5078309;28;20044;-56
2023/05/23 00:20:39;;;;;;;22.33;15.30;;;13.10;99.90;;;;;;5058495;28;20048;-57
2023/05/23 00:23:07;;;;;;;28.48;14.98;;;13.20;99.90;;;;;;5078607;28;20059;-57
2023/05/23 00:25:33;;;;;;;25.50;15.85;;;13.30;99.90;;;;;;5076558;28;20041;-56
2023/05/23 00:27:59;;;;;;;24.92;15.68;;;13.50;99.90;;;;;;5078056;28;20058;-57
2023/05/23 00:30:26;;;;;;;24.90;15.32;;;13.60;99.90;;;;;;5077333;28;20063;-55
2023/05/23 00:32:53;;;;;;;25.80;15.57;;;13.60;99.90;;;;;;5076943;28;20056;-56
2023/05/23 00:35:20;;;;;;;24.45;15.13;;;13.00;99.90;;;;;;5078138;28;20051;-57
2023/05/23 00:37:49;;;;;;;22.23;14.90;;;13.00;99.90;;;;;;5084842;28;20044;-56
2023/05/23 00:40:14;;;;;;;26.70;14.07;;;13.50;99.90;;;;;;5098672;28;20055;-56
2023/05/23 00:42:40;;;;;;;21.77;12.55;;;13.00;99.90;;;;;;5096537;28;20040;-56
2023/05/23 00:45:06;;;;;;;24.13;11.98;;;13.50;99.90;;;;;;5098183;28;20052;-57
2023/05/23 00:47:32;;;;;;;15.45;10.13;;;13.50;99.90;;;;;;5097699;28;20047;-56
2023/05/23 00:49:58;;;;;;;17.85;9.60;;;13.40;99.90;;;;;;5096569;28;20239;-57
2023/05/23 00:52:24;;;;;;;16.20;9.48;;;13.30;99.90;;;;;;5097305;28;20040;-56
2023/05/23 00:54:50;;;;;;;15.27;9.20;;;13.10;99.90;;;;;;5096235;28;20389;-57
2023/05/23 00:57:16;;;;;;;18.52;8.57;;;13.00;99.90;;;;;;5097716;28;20077;-57
2023/05/23 00:59:44;;;;;;;19.15;9.15;;;12.90;99.90;;;;;;5096384;28;20044;-57
2023/05/23 01:02:11;;;;;;;16.50;8.25;;;13.30;99.90;;;;;;5098084;28;20040;-57
2023/05/23 01:04:37;;;;;;;16.95;9.48;;;12.90;99.90;;;;;;5079146;28;20044;-57
2023/05/23 01:07:03;;;;;;;17.65;9.93;;;12.80;99.90;;;;;;5096898;28;20052;-57
2023/05/23 01:09:30;;;;;;;17.30;10.13;;;13.10;99.90;;;;;;5097976;28;20048;-57
2023/05/23 01:12:08;;;;;;;20.10;10.98;;;13.20;99.90;;;;;;5096012;28;20051;-56
2023/05/23 01:14:44;;;;;;;24.38;10.38;;;12.50;99.90;;;;;;5098428;28;20047;-56
2023/05/23 01:17:20;;;;;;;23.63;10.40;;;12.90;99.90;;;;;;5096711;28;20286;-56
2023/05/23 01:20:09;;;;;;;24.80;10.30;;;12.40;99.90;;;;;;5093194;28;20080;-56
2023/05/23 01:22:59;;;;;;;28.70;11.60;;;12.70;99.90;;;;;;5077877;28;20207;-56
2023/05/23 01:25:38;;;;;;;25.40;11.80;;;12.50;99.90;;;;;;5075896;28;20094;-55
2023/05/23 01:28:07;;;;;;;27.50;13.20;;;12.50;99.90;;;;;;5077188;28;20543;-56
2023/05/23 01:30:38;;;;;;;28.08;12.57;;;12.20;99.90;;;;;;5058864;28;20115;-55
2023/05/23 01:33:08;;;;;;;30.55;13.20;;;12.30;99.90;;;;;;5090221;28;20141;-56
2023/05/23 01:35:34;;;;;;;26.77;12.07;;;12.00;99.90;;;;;;5079527;28;20081;-56
2023/05/23 01:38:00;;;;;;;27.10;13.43;;;12.50;99.90;;;;;;5095712;28;20067;-56
2023/05/23 01:40:26;;;;;;;33.08;13.45;;;11.90;99.90;;;;;;5098091;28;20052;-56
2023/05/23 01:42:53;;;;;;;23.67;12.38;;;12.50;99.90;;;;;;5061460;28;20109;-56
2023/05/23 01:45:20;;;;;;;27.30;12.45;;;12.40;99.90;;;;;;5097177;28;20054;-56
2023/05/23 01:47:49;;;;;;;32.13;12.30;;;12.40;99.90;;;;;;5097171;28;20935;-56
2023/05/23 01:50:15;;;;;;;27.75;12.38;;;12.10;99.90;;;;;;5096095;28;20051;-56
2023/05/23 01:52:42;;;;;;;28.70;11.40;;;12.40;99.90;;;;;;5097882;28;20419;-56
2023/05/23 01:55:08;;;;;;;30.20;10.90;;;12.10;99.90;;;;;;5095734;28;20075;-57
2023/05/23 01:57:39;;;;;;;24.70;11.43;;;12.50;99.90;;;;;;5097721;28;20051;-57
2023/05/23 02:00:06;;;;;;;25.90;10.63;;;12.40;99.90;;;;;;5096201;28;20102;-56
2023/05/23 02:02:34;;;;;;;22.02;9.45;;;12.40;99.90;;;;;;5096686;28;20112;-57
2023/05/23 02:05:00;;;;;;;24.52;10.18;;;12.50;99.90;;;;;;5097448;28;20068;-57
2023/05/23 02:07:26;;;;;;;24.85;9.85;;;12.00;99.90;;;;;;5097695;28;20055;-58
2023/05/23 02:09:52;;;;;;;23.23;8.85;;;12.50;99.90;;;;;;5101340;28;20132;-55
2023/05/23 02:12:17;;;;;;;24.13;8.35;;;12.10;99.90;;;;;;5099036;28;20040;-57
2023/05/23 02:14:43;;;;;;;22.17;8.02;;;12.10;99.90;;;;;;5101223;28;20040;-56
2023/05/23 02:17:09;;;;;;;21.85;7.85;;;12.40;99.90;;;;;;5099568;28;20051;-55
2023/05/23 02:19:35;;;;;;;19.80;7.35;;;12.10;99.90;;;;;;5100424;28;20067;-57
2023/05/23 02:22:01;;;;;;;17.95;7.32;;;12.40;99.90;;;;;;5100500;28;20040;-56
2023/05/23 02:24:26;;;;;;;18.58;7.25;;;12.10;99.90;;;;;;5099255;28;20534;-57
2023/05/23 02:26:52;;;;;;;18.73;6.68;;;12.20;99.90;;;;;;5100611;28;20073;-56
2023/05/23 02:29:18;;;;;;;20.55;7.10;;;12.10;99.90;;;;;;5098938;28;20051;-55
2023/05/23 02:31:44;;;;;;;23.48;7.32;;;12.30;99.90;;;;;;5100637;28;20044;-56
2023/05/23 02:34:09;;;;;;;19.67;7.10;;;12.20;99.90;;;;;;5099405;28;20040;-56
2023/05/23 02:36:36;;;;;;;22.55;6.78;;;12.30;99.90;;;;;;5100684;28;20044;-56
2023/05/23 02:39:02;;;;;;;19.23;6.72;;;12.10;99.90;;;;;;5099973;28;20048;-56
2023/05/23 02:41:28;;;;;;;21.92;7.13;;;12.10;99.90;;;;;;5099011;28;20044;-56
2023/05/23 02:43:54;;;;;;;23.70;7.00;;;12.40;99.90;;;;;;5100503;28;20050;-56
2023/05/23 02:46:20;;;;;;;23.00;8.85;;;12.20;99.90;;;;;;5098785;28;20040;-55
2023/05/23 02:48:46;;;;;;;23.92;8.68;;;12.10;99.90;;;;;;5100849;28;20040;-56
2023/05/23 02:51:12;;;;;;;19.80;7.22;;;12.20;99.90;;;;;;5080653;28;20082;-56
2023/05/23 02:53:38;;;;;;;22.10;7.97;;;12.30;99.90;;;;;;5100387;28;20592;-57
2023/05/23 02:56:06;;;;;;;27.38;8.82;;;12.30;99.90;;;;;;5099812;28;20036;-56
2023/05/23 02:58:34;;;;;;;22.88;8.35;;;12.30;99.90;;;;;;5099099;28;20052;-56
2023/05/23 03:01:01;;;;;;;21.77;7.65;;;12.30;99.90;;;;;;5099886;28;20036;-55
2023/05/23 03:03:27;;;;;;;16.92;6.32;;;12.20;99.90;;;;;;5098316;28;20044;-54
2023/05/23 03:05:53;;;;;;;21.02;7.03;;;12.00;99.90;;;;;;5082184;28;20101;-56
2023/05/23 03:08:19;;;;;;;19.35;6.57;;;12.30;99.90;;;;;;5098060;28;20047;-56
2023/05/23 03:10:45;;;;;;;17.77;6.20;;;12.20;99.90;;;;;;5100273;28;20557;-56
2023/05/23 03:13:10;;;;;;;22.40;6.32;;;12.20;99.90;;;;;;5099354;28;20654;-56
2023/05/23 03:15:36;;;;;;;20.45;6.90;;;11.90;99.90;;;;;;5098644;28;20056;-56
2023/05/23 03:18:02;;;;;;;16.40;5.53;;;12.10;99.90;;;;;;5081343;28;20040;-56
2023/05/23 03:20:27;;;;;;;19.77;6.13;;;12.00;99.90;;;;;;5098013;28;20048;-56
2023/05/23 03:22:53;;;;;;;21.25;6.50;;;11.90;99.90;;;;;;5099969;28;20082;-55
2023/05/23 03:25:19;;;;;;;19.23;5.97;;;12.20;99.90;;;;;;5097879;28;20055;-56
2023/05/23 03:27:44;;;;;;;15.82;5.03;;;11.90;99.90;;;;;;5099583;28;20069;-56
2023/05/23 03:30:10;;;;;;;18.30;5.28;;;12.20;99.90;;;;;;5098433;28;20032;-56
2023/05/23 03:32:36;;;;;;;16.02;5.38;;;12.20;99.90;;;;;;5098697;28;20048;-56
2023/05/23 03:35:02;;;;;;;20.80;5.63;;;11.90;99.90;;;;;;5099138;28;20088;-56
2023/05/23 03:37:27;;;;;;;20.02;5.57;;;12.00;99.90;;;;;;5062756;28;20495;-57
2023/05/23 03:39:53;;;;;;;19.30;5.88;;;11.80;99.90;;;;;;5099658;28;20071;-56
2023/05/23 03:42:19;;;;;;;16.33;4.72;;;11.80;99.90;;;;;;5097604;28;20051;-56
2023/05/23 03:44:44;;;;;;;17.42;4.57;;;12.10;99.90;;;;;;5099567;28;20032;-55
2023/05/23 03:47:10;;;;;;;17.67;4.57;;;11.70;99.90;;;;;;5098545;28;20132;-55
2023/05/23 03:49:36;;;;;;;22.20;5.22;;;12.00;99.90;;;;;;5098500;28;20063;-56
2023/05/23 03:52:01;;;;;;;19.58;5.20;;;12.00;99.90;;;;;;5098762;28;20100;-55
2023/05/23 03:54:27;;;;;;;16.35;4.60;;;12.00;99.90;;;;;;5097597;28;20055;-56
2023/05/23 03:56:52;;;;;;;23.33;5.22;;;12.00;99.90;;;;;;5099168;28;20091;-56
2023/05/23 03:59:18;;;;;;;14.95;5.35;;;11.70;99.90;;;;;;5097442;28;20036;-57
2023/05/23 04:01:44;;;;;;;17.88;5.93;;;11.80;99.90;;;;;;5099019;28;20043;-56
2023/05/23 04:04:09;;;;;;;19.95;5.80;;;11.70;99.90;;;;;;5097527;28;20051;-56
2023/05/23 04:06:35;;;;;;;16.00;5.13;;;11.90;99.90;;;;;;5098675;28;20108;-55
2023/05/23 04:09:02;;;;;;;19.40;5.28;;;12.00;99.90;;;;;;5098194;28;20069;-55
2023/05/23 04:11:27;;;;;;;20.10;4.50;;;12.00;99.90;;;;;;5079252;28;20043;-56
2023/05/23 04:13:53;;;;;;;19.60;5.53;;;11.80;99.90;;;;;;5098863;28;20044;-56
2023/05/23 04:16:21;;;;;;;14.63;3.83;;;11.70;99.90;;;;;;5097285;28;20044;-56
2023/05/23 04:18:47;;;;;;;10.57;3.35;;;11.90;99.90;;;;;;5080531;28;20048;-55
2023/05/23 04:21:13;;;;;;;13.38;4.03;;;11.80;99.90;;;;;;5097274;28;20032;-56
2023/05/23 04:23:38;;;;;;;16.58;4.68;;;11.80;99.90;;;;;;5098340;28;20905;-56
2023/05/23 04:26:04;;;;;;;13.93;5.20;;;11.60;99.90;;;;;;5098160;28;20076;-56
2023/05/23 04:28:32;;;;;;;16.42;4.78;;;11.70;99.90;;;;;;5096988;28;20069;-56
2023/05/23 04:30:58;;;;;;;19.63;6.25;;;11.80;99.90;;;;;;5097556;28;20091;-56
2023/05/23 04:33:24;;;;;;;21.38;6.07;;;11.50;99.90;;;;;;5096648;28;20264;-56
2023/05/23 04:35:50;;;;;;;18.30;6.65;;;11.50;99.90;;;;;;5098677;28;20048;-56
2023/05/23 04:38:16;;;;;;;19.17;6.00;;;11.70;99.90;;;;;;5078213;28;20075;-56
2023/05/23 04:40:42;;;;;;;21.38;6.05;;;11.40;99.90;;;;;;5098308;28;20044;-56
2023/05/23 04:43:09;;;;;;;18.55;6.40;;;11.70;99.90;;;;;;5097986;28;20040;-55
2023/05/23 04:45:35;;;;;;;17.25;6.95;;;11.60;99.90;;;;;;5078686;28;20043;-56
2023/05/23 04:48:02;;;;;;;27.45;7.75;;;11.30;99.90;;;;;;5098212;28;20048;-57
2023/05/23 04:50:31;;;;;;;18.42;6.90;;;11.50;99.90;;;;;;5094794;28;20054;-56
2023/05/23 04:52:57;;;;;;;21.58;7.50;;;11.50;99.90;;;;;;5094954;28;20044;-56
2023/05/23 04:55:23;;;;;;;23.10;8.35;;;11.20;99.90;;;;;;5093329;28;20058;-56
2023/05/23 04:57:48;;;;;;;19.88;6.72;;;11.50;99.90;;;;;;5094914;28;20040;-56
2023/05/23 05:00:14;;;;;;;19.30;7.05;;;11.40;99.90;;;;;;5094126;28;20048;-55
2023/05/23 05:02:40;;;;;;;16.13;6.25;;;11.20;99.90;;;;;;5093216;28;20047;-56
2023/05/23 05:05:06;;;;;;;19.17;6.10;;;11.10;99.90;;;;;;5094443;28;20040;-56
2023/05/23 05:07:35;;;;;;;16.10;6.50;;;11.10;99.90;;;;;;5093004;28;20048;-56
2023/05/23 05:10:01;;;;;;;19.58;6.03;;;11.00;99.90;;;;;;5095137;28;20040;-56
2023/05/23 05:12:27;;;;;;;18.25;5.32;;;11.10;99.90;;;;;;5093081;28;20056;-56
2023/05/23 05:14:52;;;;;;;21.02;6.22;;;11.00;99.90;;;;;;5094443;28;20051;-56
2023/05/23 05:17:18;;;;;;;16.35;6.05;;;11.20;99.90;;;;;;5093974;28;20076;-57
2023/05/23 05:19:47;;;;;;;15.95;6.60;;;11.10;99.90;;;;;;5093070;28;20474;-56
2023/05/23 05:22:13;;;;;;;17.35;6.10;;;11.10;99.90;;;;;;5093716;28;20068;-57
2023/05/23 05:24:39;;;;;;;19.50;6.95;;;11.00;99.90;;;;;;5092648;28;20059;-57
2023/05/23 05:27:05;;;;;;;15.70;5.38;;;11.10;99.90;;;;;;5076397;28;20048;-56
2023/05/23 05:29:32;;;;;;;19.70;7.05;;;11.10;99.90;;;;;;5092777;28;20048;-56
2023/05/23 05:32:00;;;;;;;15.23;6.53;;;11.10;99.90;;;;;;5094362;28;20744;-57
2023/05/23 05:34:25;;;;;;;15.30;5.60;;;11.10;99.90;;;;;;5086955;28;20076;-56
2023/05/23 05:36:54;;;;;;;16.55;5.60;;;11.00;99.90;;;;;;5082217;28;20047;-57
2023/05/23 05:39:23;;;;;;;14.77;5.45;;;10.90;99.90;;;;;;5057598;28;20161;-55
2023/05/23 05:41:48;;;;;;;17.08;6.20;;;11.00;99.90;;;;;;5070519;28;20099;-56
2023/05/23 05:44:14;;;;;;;14.20;5.25;;;10.90;99.90;;;;;;5078372;28;20139;-57
2023/05/23 05:46:40;;;;;;;10.85;4.38;;;11.00;99.90;;;;;;5076189;28;20044;-56
2023/05/23 05:49:05;;;;;;;15.93;5.40;;;11.10;99.90;;;;;;5077885;28;20053;-56
2023/05/23 05:51:31;;;;;;;13.57;4.53;;;11.10;99.90;;;;;;5076619;28;20045;-54
2023/05/23 05:53:57;;;;;;;13.20;4.18;;;11.10;99.90;;;;;;5058862;28;20049;-56
2023/05/23 05:56:22;;;;;;;14.32;4.30;;;11.00;99.90;;;;;;5059628;28;20107;-55
2023/05/23 05:58:48;;;;;;;15.35;4.07;;;11.00;99.90;;;;;;5058075;28;20040;-56
2023/05/23 06:01:14;;;;;;;12.68;4.38;;;11.00;99.90;;;;;;5077899;28;20090;-57
2023/05/23 06:03:40;;;;;;;16.65;4.50;;;11.00;99.90;;;;;;5075488;28;20079;-56
2023/05/23 06:06:07;;;;;;;12.43;3.70;;;11.00;99.90;;;;;;5077921;28;20317;-56
2023/05/23 06:08:33;;;;;;;21.17;4.03;;;11.00;99.90;;;;;;5076355;28;20076;-54
2023/05/23 06:11:01;;;;;;;17.08;4.55;;;11.00;99.90;;;;;;5076728;28;20055;-57
2023/05/23 06:13:27;;;;;;;15.35;4.00;;;11.10;99.90;;;;;;5077334;28;20045;-56
2023/05/23 06:15:53;;;;;;;16.73;4.47;;;11.20;99.90;;;;;;5075263;28;20051;-57
2023/05/23 06:18:18;;;;;;;14.20;3.70;;;11.10;99.90;;;;;;5078076;28;20040;-55
2023/05/23 06:20:44;;;;;;;15.50;4.03;;;11.20;99.90;;;;;;5076036;28;20914;-57
2023/05/23 06:23:10;;;;;;;19.10;4.20;;;11.20;99.90;;;;;;5077982;28;20076;-55
2023/05/23 06:25:35;;;;;;;15.50;4.30;;;11.20;99.90;;;;;;5076023;28;20049;-57
2023/05/23 06:28:01;;;;;;;14.05;3.63;;;11.30;99.90;;;;;;5076351;28;20068;-57
2023/05/23 06:30:28;;;;;;;17.33;3.97;;;11.40;99.90;;;;;;5058412;28;20063;-55
2023/05/23 06:32:53;;;;;;;20.77;3.63;;;11.60;99.90;;;;;;5075680;28;20060;-56
2023/05/23 06:35:19;;;;;;;14.05;3.97;;;11.50;99.90;;;;;;5077067;28;20040;-57
2023/05/23 06:37:45;;;;;;;19.88;3.60;;;11.60;99.90;;;;;;5075041;28;20095;-56
2023/05/23 06:40:14;;;;;;;17.77;3.50;;;11.50;99.90;;;;;;5076925;28;20416;-56
2023/05/23 06:42:40;;;;;;;20.25;4.38;;;11.70;99.90;;;;;;5058231;28;20059;-57
2023/05/23 06:45:07;;;;;;;15.52;3.70;;;11.70;99.90;;;;;;5058506;28;20060;-56
2023/05/23 06:47:32;;;;;;;23.02;4.07;;;11.70;99.90;;;;;;5076570;28;20135;-57
2023/05/23 06:49:58;;;;;;;18.25;3.53;;;11.50;99.90;;;;;;5075403;28;20087;-56
2023/05/23 06:52:24;;;;;;;17.80;4.35;;;11.60;99.90;;;;;;5069674;28;20040;-55
2023/05/23 06:54:50;;;;;;;18.10;3.38;;;11.80;99.90;;;;;;5064612;28;20149;-56
2023/05/23 06:57:16;;;;;;;19.52;3.83;;;11.90;99.90;;;;;;5057184;28;20048;-56
2023/05/23 06:59:41;;;;;;;13.40;3.40;;;12.00;99.90;;;;;;5061348;28;20051;-56
2023/05/23 07:02:07;;;;;;;17.25;3.83;;;11.90;99.90;;;;;;5054650;28;20051;-57
2023/05/23 07:04:33;;;;;;;13.55;2.90;;;11.80;99.90;;;;;;5062131;28;20037;-57
2023/05/23 07:06:59;;;;;;;22.85;4.28;;;11.80;99.90;;;;;;5054722;28;20096;-57
2023/05/23 07:09:24;;;;;;;18.33;3.92;;;11.70;99.90;;;;;;5076616;28;20128;-57
2023/05/23 07:11:50;;;;;;;15.68;3.15;;;11.70;99.90;;;;;;5056477;28;20080;-56
2023/05/23 07:14:16;;;;;;;17.50;3.80;;;11.60;99.90;;;;;;5076562;28;20079;-56
2023/05/23 07:16:41;;;;;;;18.77;3.42;;;11.70;99.90;;;;;;5074292;28;20064;-56
2023/05/23 07:19:07;;;;;;;15.50;3.10;;;11.70;99.90;;;;;;5076238;28;20036;-56
2023/05/23 07:21:33;;;;;;;15.98;3.63;;;11.70;99.90;;;;;;5075392;28;20052;-55
2023/05/23 07:23:58;;;;;;;20.33;3.90;;;11.80;99.90;;;;;;5075044;28;20052;-55
2023/05/23 07:26:26;;;;;;;14.65;2.72;;;11.60;99.90;;;;;;5075989;28;20064;-55
2023/05/23 07:28:51;;;;;;;18.48;3.42;;;11.60;99.90;;;;;;5075173;28;20097;-56
2023/05/23 07:31:17;;;;;;;12.25;2.70;;;11.60;99.90;;;;;;5078523;28;20040;-56
2023/05/23 07:33:43;;;;;;;18.00;3.35;;;11.60;99.90;;;;;;5077372;28;20134;-56
2023/05/23 07:36:10;;;;;;;13.20;2.78;;;11.60;99.90;;;;;;5079090;28;20040;-57
2023/05/23 07:38:35;;;;;;;16.98;3.85;;;11.60;99.90;;;;;;5072342;28;20069;-57
2023/05/23 07:41:01;;;;;;;11.93;2.92;;;11.70;99.90;;;;;;5078350;28;20063;-57
2023/05/23 07:43:26;;;;;;;13.43;3.67;;;11.70;99.90;;;;;;5078680;28;20037;-56
2023/05/23 07:45:52;;;;;;;14.73;3.10;;;11.80;99.90;;;;;;5077114;28;20048;-57
2023/05/23 07:48:18;;;;;;;12.80;2.78;;;11.90;99.90;;;;;;5079171;28;20100;-56
2023/05/23 07:50:44;;;;;;;17.13;3.78;;;11.90;99.90;;;;;;5076936;28;20049;-56
2023/05/23 07:53:10;;;;;;;13.07;3.17;;;12.00;99.90;;;;;;5079263;28;20115;-55
2023/05/23 07:55:35;;;;;;;21.13;3.55;;;12.20;99.90;;;;;;5076274;28;20571;-56
2023/05/23 07:58:01;;;;;;;18.90;3.38;;;12.30;99.90;;;;;;5076605;28;20606;-56
2023/05/23 08:00:27;;;;;;;14.15;3.40;;;12.30;99.90;;;;;;5077819;28;20136;-56
2023/05/23 08:02:53;;;;;;;18.50;3.28;;;12.20;99.90;;;;;;5077110;28;20066;-56
2023/05/23 08:05:20;;;;;;;14.40;3.65;;;12.30;99.90;;;;;;5077720;28;20124;-56
2023/05/23 08:07:46;;;;;;;11.70;2.67;;;12.40;99.90;;;;;;5076627;28;20056;-56
2023/05/23 08:10:11;;;;;;;22.08;4.90;;;12.50;99.90;;;;;;5078522;28;20086;-56
2023/05/23 08:12:37;;;;;;;16.27;3.58;;;12.40;99.90;;;;;;5076083;28;20102;-56
2023/05/23 08:15:03;;;;;;;16.77;3.70;;;12.50;99.90;;;;;;5077969;28;20040;-57
2023/05/23 08:17:29;;;;;;;19.08;5.05;;;12.70;99.90;;;;;;5078053;28;20089;-56
2023/05/23 08:19:54;;;;;;;13.55;3.97;;;12.60;99.90;;;;;;5076798;28;20044;-56
2023/05/23 08:22:20;;;;;;;16.10;3.17;;;12.40;99.90;;;;;;5078376;28;20048;-57
2023/05/23 08:24:46;;;;;;;13.98;3.45;;;12.50;99.90;;;;;;5075180;28;20086;-56
2023/05/23 08:27:11;;;;;;;16.67;3.28;;;12.60;99.90;;;;;;5076774;28;20104;-57
2023/05/23 08:29:37;;;;;;;16.30;3.92;;;12.60;99.90;;;;;;5076413;28;20048;-56
2023/05/23 08:32:03;;;;;;;14.55;3.22;;;12.60;99.90;;;;;;5077451;28;20104;-57
2023/05/23 08:34:28;;;;;;;17.63;4.15;;;12.80;99.90;;;;;;5076938;28;20036;-54
2023/05/23 08:36:54;;;;;;;16.20;3.20;;;13.10;99.90;;;;;;5076683;28;20040;-56
2023/05/23 08:39:20;;;;;;;12.27;2.80;;;13.00;99.90;;;;;;5097599;28;20052;-57
2023/05/23 08:41:46;;;;;;;15.20;3.28;;;13.20;99.90;;;;;;5095857;28;20048;-57
2023/05/23 08:44:12;;;;;;;15.38;3.13;;;13.20;99.90;;;;;;5097493;28;20043;-56
2023/05/23 08:46:44;;;;;;;18.60;3.75;;;13.30;99.90;;;;;;5096131;28;20075;-57
2023/05/23 08:49:13;;;;;;;15.23;3.67;;;13.20;99.90;;;;;;5096724;28;20074;-56
2023/05/23 08:51:41;;;;;;;15.75;3.83;;;13.40;99.90;;;;;;5096655;28;20424;-57
2023/05/23 08:54:08;;;;;;;16.50;3.28;;;13.10;99.90;;;;;;5095445;28;20115;-57
2023/05/23 08:56:35;;;;;;;13.27;3.53;;;12.90;99.90;;;;;;5097435;28;20053;-56
2023/05/23 08:59:01;;;;;;;12.25;3.50;;;13.00;99.90;;;;;;5095168;28;20044;-56
2023/05/23 09:01:29;;;;;;;16.50;3.08;;;12.80;99.90;;;;;;5097084;28;20040;-56
2023/05/23 09:03:59;;;;;;;19.23;3.40;;;13.10;99.90;;;;;;5095432;28;20056;-56
2023/05/23 09:06:24;;;;;;;13.45;2.90;;;13.00;99.90;;;;;;5097694;28;20128;-56
2023/05/23 09:08:50;;;;;;;14.73;3.38;;;12.80;99.90;;;;;;5096273;28;20048;-57
2023/05/23 09:11:16;;;;;;;15.40;3.88;;;12.90;99.90;;;;;;5078259;28;20084;-57
2023/05/23 09:13:42;;;;;;;15.50;2.92;;;13.20;99.90;;;;;;5097518;28;20040;-57
2023/05/23 09:16:11;;;;;;;17.98;3.13;;;13.30;99.90;;;;;;5097098;28;20043;-56
2023/05/23 09:18:41;;;;;;;15.55;3.28;;;13.30;99.90;;;;;;5101579;28;20047;-57
2023/05/23 09:21:09;;;;;;;20.00;3.67;;;13.00;99.90;;;;;;5099782;28;20126;-56
2023/05/23 09:23:38;;;;;;;17.27;3.60;;;12.80;99.90;;;;;;5100232;28;20066;-57
2023/05/23 09:26:12;;;;;;;15.80;3.20;;;12.70;99.90;;;;;;5082684;28;20050;-57
2023/05/23 09:28:39;;;;;;;17.85;3.03;;;13.10;99.90;;;;;;5099169;28;20839;-57
2023/05/23 09:31:07;;;;;;;14.80;3.78;;;13.30;99.90;;;;;;5100629;28;20028;-56
2023/05/23 09:33:48;;;;;;;14.52;3.53;;;13.50;99.90;;;;;;5099046;28;20071;-57
2023/05/23 09:36:15;;;;;;;10.85;2.60;;;13.80;99.90;;;;;;5100125;28;20044;-56
2023/05/23 09:38:43;;;;;;;19.50;3.20;;;13.70;99.90;;;;;;5100356;28;20048;-57
2023/05/23 09:41:12;;;;;;;15.55;2.95;;;13.90;99.90;;;;;;5098417;28;20058;-57
2023/05/23 09:43:39;;;;;;;15.82;2.65;;;13.70;99.90;;;;;;5083118;28;20499;-56
2023/05/23 09:46:11;;;;;;;15.68;3.28;;;13.60;99.90;;;;;;5099100;28;20100;-57
2023/05/23 09:48:37;;;;;;;14.30;2.92;;;13.60;99.90;;;;;;5082922;28;20044;-57
2023/05/23 09:51:05;;;;;;;17.40;3.42;;;12.90;99.90;;;;;;5099817;28;20129;-57
2023/05/23 09:53:31;;;;;;;13.93;2.92;;;13.30;99.90;;;;;;5064559;28;20052;-57
2023/05/23 09:55:59;;;;;;;12.35;3.00;;;13.80;99.90;;;;;;5080362;28;20048;-56
2023/05/23 09:58:27;;;;;;;13.02;2.78;;;14.00;99.90;;;;;;5061553;28;20087;-56
2023/05/23 10:00:55;;;;;;;13.25;2.92;;;13.80;99.90;;;;;;5080429;28;20053;-56
2023/05/23 10:03:48;;;;;;;16.70;3.47;;;13.70;99.90;;;;;;5078610;28;20048;-56
2023/05/23 10:06:34;;;;;;;13.43;2.90;;;13.50;99.90;;;;;;5080590;28;20048;-56
2023/05/23 10:09:08;;;;;;;16.10;3.28;;;13.80;99.90;;;;;;5079800;28;20048;-56
2023/05/23 10:11:33;;;;;;;18.30;3.50;;;13.60;99.90;;;;;;5078257;28;20044;-57
2023/05/23 10:14:07;;;;;;;16.30;3.15;;;13.40;99.90;;;;;;5080892;28;20048;-57
2023/05/23 10:16:53;;;;;;;12.18;2.60;;;13.30;99.90;;;;;;5078995;28;20052;-57
2023/05/23 10:19:43;;;;;;;16.05;2.70;;;13.40;99.90;;;;;;5080092;28;20045;-56
2023/05/23 10:22:11;;;;;;;13.57;3.10;;;13.70;99.90;;;;;;5080306;28;20048;-56
2023/05/23 10:24:37;;;;;;;12.52;2.63;;;13.70;99.90;;;;;;5043542;28;20048;-56
2023/05/23 10:27:03;;;;;;;12.45;2.85;;;13.60;99.90;;;;;;5080083;28;20037;-57
2023/05/23 10:29:30;;;;;;;13.18;2.55;;;13.50;99.90;;;;;;5076939;28;20113;-56
2023/05/23 10:31:56;;;;;;;15.98;2.92;;;13.60;99.90;;;;;;5080066;28;20055;-56
2023/05/23 10:34:30;;;;;;;15.48;3.47;;;13.60;99.90;;;;;;5079241;28;20512;-57
2023/05/23 10:37:03;;;;;;;11.93;2.75;;;13.80;99.90;;;;;;5078598;28;20040;-57
2023/05/23 10:39:51;;;;;;;16.00;3.45;;;14.20;99.90;;;;;;5062752;28;20070;-56
2023/05/23 10:42:24;;;;;;;18.10;3.05;;;14.20;99.90;;;;;;5078550;28;20087;-57
2023/05/23 10:44:49;;;;;;;13.40;3.35;;;14.10;99.90;;;;;;5079851;28;20040;-57
2023/05/23 10:47:29;;;;;;;16.67;3.20;;;13.90;99.90;;;;;;5079058;28;20353;-56
2023/05/23 10:49:54;;;;;;;17.45;3.25;;;14.20;99.90;;;;;;5078517;28;20051;-57
2023/05/23 10:52:25;;;;;;;13.82;3.33;;;14.00;99.90;;;;;;5079765;28;20044;-57
2023/05/23 10:54:53;;;;;;;15.20;2.55;;;13.90;99.90;;;;;;5075968;28;20044;-55
2023/05/23 10:57:24;;;;;;;13.70;2.90;;;14.00;99.90;;;;;;5078380;28;20055;-55
2023/05/23 10:59:50;;;;;;;14.47;2.57;;;14.10;99.90;;;;;;5078237;28;20236;-57
2023/05/23 11:02:25;;;;;;;12.02;2.75;;;14.00;99.90;;;;;;5077777;28;20059;-56
2023/05/23 11:05:23;;;;;;;16.38;3.53;;;13.90;99.90;;;;;;5079662;28;20385;-57
2023/05/23 11:08:07;;;;;;;19.60;3.28;;;14.00;99.90;;;;;;5071061;28;20132;-57
2023/05/23 11:10:51;;;;;;;11.55;2.53;;;14.10;99.90;;;;;;5072415;28;20056;-57
2023/05/23 11:13:17;;;;;;;16.83;3.25;;;13.70;99.90;;;;;;5058159;28;20056;-57
2023/05/23 11:15:44;;;;;;;10.85;2.67;;;13.80;99.90;;;;;;5068729;28;20575;-57
2023/05/23 11:18:22;;;;;;;15.60;3.00;;;13.50;99.90;;;;;;5067173;28;20132;-56
2023/05/23 11:20:53;;;;;;;17.23;3.10;;;13.40;99.90;;;;;;5066684;28;20044;-55
2023/05/23 11:23:19;;;;;;;15.23;3.40;;;13.50;99.90;;;;;;5069925;28;20053;-57
2023/05/23 11:25:49;;;;;;;16.83;4.35;;;13.70;99.90;;;;;;5060513;28;20076;-57
2023/05/23 11:28:16;;;;;;;14.07;2.55;;;13.80;99.90;;;;;;5078296;28;20045;-57
2023/05/23 11:30:42;;;;;;;15.43;3.40;;;13.50;99.90;;;;;;5060240;28;20056;-57
2023/05/23 11:33:12;;;;;;;12.57;3.17;;;13.60;99.90;;;;;;5058427;28;20068;-57
2023/05/23 11:35:46;;;;;;;13.73;2.70;;;13.90;99.90;;;;;;5079094;28;20070;-57
2023/05/23 11:38:14;;;;;;;11.98;2.55;;;13.90;99.90;;;;;;5059564;28;20044;-57
2023/05/23 11:40:42;;;;;;;15.07;2.85;;;14.00;99.90;;;;;;5080175;28;20052;-57
2023/05/23 11:43:10;;;;;;;15.55;3.20;;;13.80;99.90;;;;;;5091376;28;20036;-57
2023/05/23 11:45:37;;;;;;;14.13;3.50;;;14.10;99.90;;;;;;5079315;28;20044;-57
2023/05/23 11:48:07;;;;;;;15.70;3.25;;;14.10;99.90;;;;;;5099350;28;20040;-57
2023/05/23 11:50:33;;;;;;;12.60;2.78;;;14.70;99.90;;;;;;5097252;28;20036;-56
2023/05/23 11:52:59;;;;;;;18.73;3.35;;;14.40;99.90;;;;;;5099282;28;20119;-57
2023/05/23 11:55:25;;;;;;;14.50;2.45;;;14.20;99.90;;;;;;5097545;28;20066;-57
2023/05/23 11:57:51;;;;;;;15.63;2.97;;;14.10;99.90;;;;;;5098474;28;20618;-57
2023/05/23 12:00:17;;;;;;;12.40;2.85;;;14.10;99.90;;;;;;5098458;28;20046;-56
2023/05/23 12:02:44;;;;;;;15.30;3.25;;;13.80;99.90;;;;;;5097351;28;20078;-57
2023/05/23 12:05:14;;;;;;;17.58;3.63;;;13.80;99.90;;;;;;5099004;28;20071;-56
2023/05/23 12:07:42;;;;;;;14.43;3.20;;;13.60;99.90;;;;;;5097161;28;20107;-57
2023/05/23 12:10:11;;;;;;;16.08;3.42;;;13.80;99.90;;;;;;5098944;28;20039;-55
2023/05/23 12:12:43;;;;;;;12.57;3.50;;;13.90;99.90;;;;;;5097333;28;20055;-57
2023/05/23 12:15:10;;;;;;;13.38;2.65;;;13.90;99.90;;;;;;5097986;28;20119;-57
2023/05/23 12:17:45;;;;;;;16.10;3.38;;;13.80;99.90;;;;;;5098543;28;20108;-56
2023/05/23 12:20:11;;;;;;;11.60;2.20;;;13.70;99.90;;;;;;5097039;28;20122;-57
2023/05/23 12:22:37;;;;;;;11.35;2.55;;;13.60;99.90;;;;;;5098228;28;20051;-57
2023/05/23 12:25:03;;;;;;;13.00;3.30;;;13.90;99.90;;;;;;5097223;28;20094;-57
2023/05/23 12:27:34;;;;;;;12.48;3.15;;;14.10;99.90;;;;;;5098526;28;20048;-57
2023/05/23 12:30:08;;;;;;;9.95;2.42;;;14.10;99.90;;;;;;5097594;28;20078;-55
2023/05/23 12:32:35;;;;;;;12.73;3.00;;;14.10;99.90;;;;;;5097083;28;20048;-56
2023/05/23 12:35:00;;;;;;;14.20;3.10;;;14.40;99.90;;;;;;5079952;28;20055;-57
2023/05/23 12:37:26;;;;;;;15.57;2.70;;;14.20;99.90;;;;;;5095744;28;20052;-57